Terminal Aerodrome Forecast
Issued by NWS Bismarck, ND

Home | Current Version | Previous Version | Text Only | Print | Product List | Glossary On
Versions: 1 2 3 4 5 6 7 8 9 10 11 12 13 14 15 16 17 18
000
FTUS43 KBIS 200211 AAA
TAFISN
TAF AMD
KISN 200211Z 2002/2024 VRB05KT 1/4SM FG OVC002
     FM201200 23005KT 1/2SM FG OVC015
     FM201400 24006KT 3SM BR OVC040
     FM201500 24007KT P6SM BKN060=

USA.gov is the U.S. government's official web portal to all federal, state and local government web resources and services.